createdAt,value
2022-07-25T00:00:25.102Z,5.82
2022-07-25T00:02:51.661Z,4.82
2022-07-25T00:05:18.352Z,5.05
2022-07-25T00:07:44.933Z,5.22
2022-07-25T00:10:11.929Z,5.05
2022-07-25T00:12:38.604Z,5.10
2022-07-25T00:15:05.931Z,5.28
2022-07-25T00:17:32.499Z,5.05
2022-07-25T00:19:59.029Z,4.43
2022-07-25T00:22:25.839Z,5.00
2022-07-25T00:24:52.450Z,4.57
2022-07-25T00:27:18.979Z,5.13
2022-07-25T00:29:45.608Z,5.03
2022-07-25T00:32:12.204Z,5.20
2022-07-25T00:34:38.844Z,5.22
2022-07-25T00:37:05.486Z,4.38
2022-07-25T00:39:31.995Z,6.10
2022-07-25T00:42:02.359Z,5.35
2022-07-25T00:44:31.201Z,5.15
2022-07-25T00:46:58.810Z,5.03
2022-07-25T00:49:26.066Z,4.95
2022-07-25T00:51:54.290Z,5.30
2022-07-25T00:54:21.909Z,5.45
2022-07-25T00:56:49.535Z,5.03
2022-07-25T00:59:17.193Z,4.85
2022-07-25T01:01:45.682Z,4.88
2022-07-25T01:04:12.305Z,5.03
2022-07-25T01:06:38.869Z,4.50
2022-07-25T01:09:05.452Z,5.22
2022-07-25T01:11:31.986Z,5.00
2022-07-25T01:13:58.626Z,4.45
2022-07-25T01:16:25.357Z,4.32
2022-07-25T01:18:52.040Z,5.30
2022-07-25T01:21:18.617Z,3.97
2022-07-25T01:23:45.210Z,3.90
2022-07-25T01:26:11.767Z,4.93
2022-07-25T01:28:38.416Z,4.18
2022-07-25T01:31:05.187Z,4.03
2022-07-25T01:33:31.831Z,5.70
2022-07-25T01:35:58.384Z,4.85
2022-07-25T01:38:24.953Z,4.43
2022-07-25T01:40:51.619Z,4.47
2022-07-25T01:43:18.679Z,5.35
2022-07-25T01:45:45.263Z,4.97
2022-07-25T01:48:11.844Z,5.03
2022-07-25T01:50:38.399Z,4.85
2022-07-25T01:53:05.355Z,4.82
2022-07-25T01:55:31.911Z,4.70
2022-07-25T02:00:26.502Z,4.50
2022-07-25T02:03:11.623Z,4.13
2022-07-25T02:05:38.220Z,4.72
2022-07-25T02:08:05.075Z,4.65
2022-07-25T02:10:31.968Z,6.43
2022-07-25T02:12:58.581Z,5.95
2022-07-25T02:15:25.172Z,4.05
2022-07-25T02:17:51.764Z,4.60
2022-07-25T02:20:18.305Z,4.80
2022-07-25T02:22:44.846Z,5.00
2022-07-25T02:25:11.394Z,4.82
2022-07-25T02:27:38.204Z,3.95
2022-07-25T02:30:05.801Z,5.00
2022-07-25T02:32:32.361Z,4.78
2022-07-25T02:34:58.920Z,4.03
2022-07-25T02:37:25.523Z,3.97
2022-07-25T02:39:52.077Z,4.78
2022-07-25T02:42:18.600Z,4.95
2022-07-25T02:44:45.160Z,4.30
2022-07-25T02:47:11.702Z,3.70
2022-07-25T02:49:38.240Z,4.95
2022-07-25T02:52:05.027Z,4.70
2022-07-25T02:54:31.616Z,3.95
2022-07-25T02:56:58.164Z,4.47
2022-07-25T02:59:24.741Z,4.28
2022-07-25T03:01:58.576Z,4.80
2022-07-25T03:04:25.319Z,4.57
2022-07-25T03:06:51.983Z,4.68
2022-07-25T03:09:19.122Z,4.88
2022-07-25T03:14:12.241Z,5.07
2022-07-25T03:16:38.867Z,4.65
2022-07-25T03:19:10.225Z,4.85
2022-07-25T03:21:39.805Z,4.05
2022-07-25T03:24:06.782Z,4.35
2022-07-25T03:28:59.957Z,4.10
2022-07-25T03:31:26.558Z,4.00
2022-07-25T03:33:53.129Z,4.20
2022-07-25T03:36:19.678Z,3.95
2022-07-25T03:38:46.209Z,4.60
2022-07-25T03:41:14.142Z,4.40
2022-07-25T03:43:40.769Z,3.97
2022-07-25T03:46:07.340Z,4.35
2022-07-25T03:48:34.049Z,3.60
2022-07-25T03:51:04.990Z,4.38
2022-07-25T03:53:33.962Z,4.53
2022-07-25T03:56:00.479Z,4.07
2022-07-25T03:58:27.037Z,4.28
2022-07-25T04:00:53.605Z,4.35
2022-07-25T04:03:20.536Z,4.80
2022-07-25T04:05:47.717Z,3.60
2022-07-25T04:08:14.549Z,4.45
2022-07-25T04:10:41.081Z,4.70
2022-07-25T04:15:34.944Z,4.88
2022-07-25T04:18:01.463Z,3.85
2022-07-25T04:20:29.332Z,3.78
2022-07-25T04:22:55.943Z,4.47
2022-07-25T04:25:22.543Z,3.63
2022-07-25T04:27:49.121Z,3.80
2022-07-25T04:30:24.573Z,4.57
2022-07-25T04:32:51.656Z,3.90
2022-07-25T04:35:18.176Z,3.88
2022-07-25T04:37:44.695Z,4.28
2022-07-25T04:40:11.783Z,4.57
2022-07-25T04:42:38.310Z,3.47
2022-07-25T04:45:05.338Z,4.93
2022-07-25T04:47:31.965Z,3.95
2022-07-25T04:49:58.576Z,3.85
2022-07-25T04:52:25.132Z,4.05
2022-07-25T04:54:51.644Z,3.50
2022-07-25T04:57:18.200Z,3.90
2022-07-25T04:59:44.763Z,4.95
2022-07-25T05:02:11.783Z,4.50
2022-07-25T05:04:43.379Z,7.35
2022-07-25T05:07:11.736Z,14.88
2022-07-25T05:09:38.307Z,8.00
2022-07-25T05:12:04.951Z,20.02
2022-07-25T05:14:31.585Z,9.52
2022-07-25T05:16:58.107Z,6.85
2022-07-25T05:19:24.700Z,9.23
2022-07-25T05:21:51.233Z,17.23
2022-07-25T05:24:17.971Z,13.20
2022-07-25T05:26:44.540Z,11.13
2022-07-25T05:29:11.085Z,8.50
2022-07-25T05:31:37.741Z,9.15
2022-07-25T05:34:05.750Z,10.68
2022-07-25T05:36:32.501Z,7.63
2022-07-25T05:38:59.393Z,8.15
2022-07-25T05:41:26.107Z,9.43
2022-07-25T05:43:52.703Z,9.95
2022-07-25T05:46:19.320Z,8.70
2022-07-25T05:48:45.947Z,7.25
2022-07-25T05:51:12.974Z,6.90
2022-07-25T05:53:39.548Z,6.63
2022-07-25T05:56:06.292Z,8.48
2022-07-25T05:58:33.139Z,7.05
2022-07-25T06:00:59.689Z,8.07
2022-07-25T06:03:26.379Z,6.65
2022-07-25T06:05:55.152Z,7.68
2022-07-25T06:08:22.521Z,5.68
2022-07-25T06:10:49.170Z,6.25
2022-07-25T06:13:15.720Z,5.25
2022-07-25T06:15:42.288Z,6.60
2022-07-25T06:18:08.912Z,6.13
2022-07-25T06:20:35.456Z,9.07
2022-07-25T06:23:03.801Z,6.65
2022-07-25T06:25:30.608Z,6.15
2022-07-25T06:27:58.378Z,8.02
2022-07-25T06:30:25.075Z,8.00
2022-07-25T06:32:51.630Z,5.53
2022-07-25T06:35:18.788Z,6.65
2022-07-25T06:40:12.367Z,6.70
2022-07-25T06:42:44.515Z,5.88
2022-07-25T06:45:12.531Z,6.68
2022-07-25T06:47:40.757Z,6.32
2022-07-25T06:50:11.304Z,6.22
2022-07-25T06:52:39.253Z,5.43
2022-07-25T06:55:07.714Z,9.68
2022-07-25T06:57:34.941Z,12.40
2022-07-25T07:02:28.024Z,10.07
2022-07-25T07:04:54.566Z,9.20
2022-07-25T07:07:21.177Z,11.55
2022-07-25T07:09:47.754Z,9.57
2022-07-25T07:12:14.319Z,8.27
2022-07-25T07:14:41.891Z,10.38
2022-07-25T07:17:08.440Z,7.78
2022-07-25T07:19:35.071Z,9.80
2022-07-25T07:22:01.635Z,8.43
2022-07-25T07:26:55.228Z,8.40
2022-07-25T07:29:21.927Z,6.78
2022-07-25T07:31:48.551Z,7.68
2022-07-25T07:34:16.294Z,9.07
2022-07-25T07:36:43.302Z,8.05
2022-07-25T07:39:09.968Z,7.90
2022-07-25T07:41:36.591Z,8.20
2022-07-25T07:44:03.197Z,7.68
2022-07-25T07:46:29.784Z,6.80
2022-07-25T07:48:56.395Z,10.65
2022-07-25T07:51:22.988Z,7.95
2022-07-25T07:54:08.052Z,7.60
2022-07-25T07:56:34.585Z,6.65
2022-07-25T07:59:01.221Z,8.10
2022-07-25T08:01:27.946Z,8.05
2022-07-25T08:03:54.549Z,7.35
2022-07-25T08:06:21.236Z,6.97
2022-07-25T08:08:47.839Z,7.05
2022-07-25T08:11:14.418Z,8.35
2022-07-25T08:13:41.038Z,8.38
2022-07-25T08:16:07.964Z,7.20
2022-07-25T08:18:34.620Z,7.28
2022-07-25T08:21:04.134Z,7.90
2022-07-25T08:23:32.028Z,9.40
2022-07-25T08:25:59.449Z,8.95
2022-07-25T08:28:26.185Z,6.75
2022-07-25T08:30:52.850Z,10.00
2022-07-25T08:33:19.576Z,6.25
2022-07-25T08:35:52.204Z,7.13
2022-07-25T08:38:19.905Z,7.90
2022-07-25T08:40:46.925Z,6.22
2022-07-25T08:43:14.909Z,7.75
2022-07-25T08:45:44.892Z,7.15
2022-07-25T08:48:11.911Z,8.32
2022-07-25T08:50:38.787Z,6.78
2022-07-25T08:53:31.584Z,5.15
2022-07-25T08:55:53.453Z,7.00
2022-07-25T08:58:20.059Z,7.32
2022-07-25T09:00:47.513Z,10.38
2022-07-25T09:03:14.179Z,7.93
2022-07-25T09:05:41.475Z,7.97
2022-07-25T09:08:13.454Z,7.95
2022-07-25T09:10:45.470Z,7.45
2022-07-25T09:13:16.613Z,7.35
2022-07-25T09:15:52.254Z,9.13
2022-07-25T09:18:23.448Z,6.53
2022-07-25T09:20:56.203Z,6.93
2022-07-25T09:23:28.531Z,6.90
2022-07-25T09:26:02.687Z,7.32
2022-07-25T09:28:29.539Z,8.10
2022-07-25T09:30:58.695Z,7.35
2022-07-25T09:33:26.767Z,7.45
2022-07-25T09:35:54.260Z,8.50
2022-07-25T09:38:21.924Z,6.68
2022-07-25T09:41:14.533Z,7.43
2022-07-25T09:43:42.709Z,7.68
2022-07-25T09:46:10.783Z,7.03
2022-07-25T09:48:39.538Z,7.28
2022-07-25T09:51:07.354Z,6.88
2022-07-25T09:53:34.329Z,7.43
2022-07-25T09:56:01.141Z,6.80
2022-07-25T09:58:29.094Z,7.55
2022-07-25T10:01:05.660Z,6.70
2022-07-25T10:03:52.372Z,8.57
2022-07-25T10:06:30.763Z,6.00
2022-07-25T10:08:57.763Z,6.15
2022-07-25T10:11:26.820Z,7.65
2022-07-25T10:13:54.759Z,7.25
2022-07-25T10:16:24.001Z,6.97
2022-07-25T10:18:55.383Z,5.95
2022-07-25T10:21:27.468Z,6.40
2022-07-25T10:24:09.878Z,7.15
2022-07-25T10:26:51.045Z,6.70
2022-07-25T10:29:17.659Z,5.50
2022-07-25T10:31:50.283Z,7.07
2022-07-25T10:34:28.939Z,5.63
2022-07-25T10:36:57.221Z,6.72
2022-07-25T10:39:24.194Z,6.22
2022-07-25T10:41:58.544Z,7.28
2022-07-25T10:44:30.487Z,6.20
2022-07-25T10:47:08.752Z,6.15
2022-07-25T10:49:37.516Z,7.25
2022-07-25T10:52:05.087Z,6.45
2022-07-25T10:54:37.382Z,5.65
2022-07-25T10:57:06.280Z,5.82
2022-07-25T10:59:35.931Z,6.88
2022-07-25T11:02:16.381Z,6.20
2022-07-25T11:04:44.872Z,6.88
2022-07-25T11:07:14.055Z,6.55
2022-07-25T11:09:42.661Z,6.28
2022-07-25T11:12:10.064Z,5.88
2022-07-25T11:14:42.736Z,5.95
2022-07-25T11:17:22.339Z,7.50
2022-07-25T11:19:55.057Z,5.88
2022-07-25T11:22:21.634Z,5.68
2022-07-25T11:24:48.532Z,5.70
2022-07-25T11:27:27.265Z,5.60
2022-07-25T11:30:11.031Z,10.23
2022-07-25T11:32:43.198Z,7.70
2022-07-25T11:35:11.865Z,6.97
2022-07-25T11:37:41.288Z,7.38
2022-07-25T11:40:09.909Z,5.60
2022-07-25T11:42:44.967Z,8.35
2022-07-25T11:45:18.652Z,5.88
2022-07-25T11:47:45.401Z,5.57
2022-07-25T11:50:14.944Z,6.72
2022-07-25T11:52:43.600Z,6.40
2022-07-25T11:55:17.803Z,7.00
2022-07-25T11:57:47.225Z,5.47
2022-07-25T12:00:18.627Z,6.57
2022-07-25T12:02:46.482Z,8.30
2022-07-25T12:05:15.935Z,8.38
2022-07-25T12:07:51.808Z,8.70
2022-07-25T12:10:39.276Z,6.93
2022-07-25T12:13:08.092Z,9.73
2022-07-25T12:15:39.038Z,7.95
2022-07-25T12:18:09.378Z,7.25
2022-07-25T12:20:40.504Z,6.63
2022-07-25T12:23:11.295Z,8.88
2022-07-25T12:25:40.717Z,10.73
2022-07-25T12:28:08.383Z,9.95
2022-07-25T12:30:35.158Z,6.30
2022-07-25T12:33:01.977Z,7.90
2022-07-25T12:35:28.630Z,8.27
2022-07-25T12:37:55.590Z,6.43
2022-07-25T12:40:22.249Z,6.43
2022-07-25T12:42:49.636Z,8.07
2022-07-25T12:45:17.943Z,6.80
2022-07-25T12:47:46.080Z,6.10
2022-07-25T12:50:13.909Z,6.15
2022-07-25T12:52:41.925Z,6.55
2022-07-25T12:55:10.892Z,6.38
2022-07-25T12:57:38.037Z,6.65
2022-07-25T13:00:08.244Z,5.60
2022-07-25T13:02:34.990Z,6.60
2022-07-25T13:05:02.176Z,5.57
2022-07-25T13:07:29.717Z,6.72
2022-07-25T13:09:56.299Z,5.68
2022-07-25T13:12:24.107Z,5.60
2022-07-25T13:14:51.180Z,6.38
2022-07-25T13:17:18.056Z,6.47
2022-07-25T13:19:44.695Z,5.75
2022-07-25T13:22:11.436Z,5.80
2022-07-25T13:24:39.303Z,5.80
2022-07-25T13:27:06.580Z,6.28
2022-07-25T13:32:01.585Z,5.68
2022-07-25T13:34:28.654Z,8.57
2022-07-25T13:36:55.179Z,5.00
2022-07-25T13:39:22.559Z,5.63
2022-07-25T13:41:49.694Z,5.78
2022-07-25T13:44:16.397Z,4.88
2022-07-25T13:46:46.080Z,5.47
2022-07-25T13:49:13.138Z,5.60
2022-07-25T13:51:39.713Z,4.80
2022-07-25T13:54:06.297Z,5.95
2022-07-25T13:56:33.272Z,5.68
2022-07-25T13:59:00.183Z,5.43
2022-07-25T14:01:28.541Z,4.93
2022-07-25T14:03:56.262Z,5.38
2022-07-25T14:06:22.856Z,4.97
2022-07-25T14:08:49.412Z,4.93
2022-07-25T14:11:16.041Z,5.35
2022-07-25T14:13:43.647Z,5.40
2022-07-25T14:16:10.442Z,6.13
2022-07-25T14:18:36.962Z,4.88
2022-07-25T14:21:03.740Z,4.75
2022-07-25T14:23:30.453Z,4.70
2022-07-25T14:25:58.863Z,4.75
2022-07-25T14:28:25.880Z,4.70
2022-07-25T14:30:52.484Z,5.82
2022-07-25T14:33:19.168Z,4.47
2022-07-25T14:35:45.787Z,4.60
2022-07-25T14:38:12.676Z,6.28
2022-07-25T14:40:41.473Z,4.90
2022-07-25T14:43:08.543Z,5.43
2022-07-25T14:45:37.025Z,5.03
2022-07-25T14:48:06.180Z,5.53
2022-07-25T14:50:32.901Z,4.38
2022-07-25T14:52:59.440Z,5.38
2022-07-25T14:55:26.009Z,5.47
2022-07-25T14:57:52.618Z,4.85
2022-07-25T15:00:19.671Z,5.18
2022-07-25T15:02:46.261Z,3.97
2022-07-25T15:05:12.868Z,4.78
2022-07-25T15:07:39.716Z,4.55
2022-07-25T15:10:06.600Z,4.65
2022-07-25T15:12:33.126Z,4.72
2022-07-25T15:14:59.640Z,4.50
2022-07-25T15:17:26.197Z,4.72
2022-07-25T15:19:52.746Z,4.43
2022-07-25T15:22:19.264Z,4.22
2022-07-25T15:25:17.177Z,4.38
2022-07-25T15:27:32.481Z,3.90
2022-07-25T15:29:59.014Z,4.28
2022-07-25T15:32:25.528Z,4.28
2022-07-25T15:34:52.062Z,4.82
2022-07-25T15:37:18.613Z,4.00
2022-07-25T15:39:45.510Z,3.85
2022-07-25T15:42:12.272Z,3.67
2022-07-25T15:44:38.811Z,3.97
2022-07-25T15:47:08.892Z,4.07
2022-07-25T15:49:37.054Z,4.05
2022-07-25T15:52:03.960Z,4.38
2022-07-25T15:54:30.552Z,4.13
2022-07-25T15:56:57.354Z,4.70
2022-07-25T15:59:23.901Z,3.65
2022-07-25T16:01:50.580Z,3.90
2022-07-25T16:04:17.164Z,3.70
2022-07-25T16:06:44.529Z,3.50
2022-07-25T16:09:12.474Z,4.10
2022-07-25T16:11:39.327Z,3.90
2022-07-25T16:14:06.117Z,4.45
2022-07-25T16:16:32.831Z,3.83
2022-07-25T16:18:59.528Z,4.07
2022-07-25T16:21:26.159Z,4.93
2022-07-25T16:23:52.939Z,4.63
2022-07-25T16:26:19.888Z,4.78
2022-07-25T16:28:47.707Z,4.40
2022-07-25T16:31:14.354Z,6.05
2022-07-25T16:33:41.003Z,5.82
2022-07-25T16:36:08.111Z,7.32
2022-07-25T16:38:34.870Z,4.53
2022-07-25T16:41:01.448Z,6.35
2022-07-25T16:43:28.031Z,5.32
2022-07-25T16:45:54.615Z,4.97
2022-07-25T16:48:21.727Z,6.47
2022-07-25T16:50:48.295Z,6.45
2022-07-25T16:53:14.920Z,4.88
2022-07-25T16:55:41.500Z,4.68
2022-07-25T16:58:08.048Z,3.63
2022-07-25T17:00:34.642Z,4.47
2022-07-25T17:03:01.265Z,4.68
2022-07-25T17:05:28.020Z,3.50
2022-07-25T17:07:59.515Z,4.43
2022-07-25T17:10:26.719Z,3.63
2022-07-25T17:12:53.557Z,4.60
2022-07-25T17:15:21.112Z,4.53
2022-07-25T17:17:47.706Z,4.53
2022-07-25T17:20:14.822Z,4.68
2022-07-25T17:22:41.488Z,5.18
2022-07-25T17:25:08.359Z,8.57
2022-07-25T17:27:35.395Z,7.10
2022-07-25T17:30:02.208Z,3.20
2022-07-25T17:32:30.218Z,2.83
2022-07-25T17:34:57.508Z,3.70
2022-07-25T17:37:24.430Z,3.80
2022-07-25T17:39:51.202Z,4.15
2022-07-25T17:42:22.331Z,4.93
2022-07-25T17:44:52.637Z,3.47
2022-07-25T17:47:19.240Z,4.05
2022-07-25T17:49:46.275Z,4.25
2022-07-25T17:52:12.977Z,4.90
2022-07-25T17:54:42.646Z,4.47
2022-07-25T17:57:09.682Z,5.05
2022-07-25T17:59:36.475Z,4.70
2022-07-25T18:02:03.636Z,4.40
2022-07-25T18:06:57.189Z,3.78
2022-07-25T18:09:24.290Z,3.60
2022-07-25T18:11:51.013Z,4.05
2022-07-25T18:14:17.582Z,4.30
2022-07-25T18:16:45.638Z,4.10
2022-07-25T18:19:13.044Z,4.38
2022-07-25T18:21:39.695Z,6.15
2022-07-25T18:24:07.276Z,4.57
2022-07-25T18:26:34.638Z,4.30
2022-07-25T18:31:27.701Z,3.83
2022-07-25T18:33:54.316Z,4.72
2022-07-25T18:36:20.857Z,4.13
2022-07-25T18:38:48.644Z,5.05
2022-07-25T18:41:31.006Z,4.65
2022-07-25T18:43:57.878Z,3.47
2022-07-25T18:46:25.033Z,4.45
2022-07-25T18:51:18.399Z,4.53
2022-07-25T18:53:48.290Z,4.28
2022-07-25T18:56:16.406Z,5.22
2022-07-25T18:58:43.589Z,4.20
2022-07-25T19:03:37.629Z,4.47
2022-07-25T19:06:04.585Z,5.57
2022-07-25T19:08:32.022Z,6.07
2022-07-25T19:10:58.625Z,4.93
2022-07-25T19:13:47.895Z,8.02
2022-07-25T19:16:11.953Z,8.05
2022-07-25T19:18:39.331Z,6.10
2022-07-25T19:21:06.455Z,6.13
2022-07-25T19:23:33.602Z,5.97
2022-07-25T19:26:01.723Z,5.07
2022-07-25T19:28:29.064Z,4.90
2022-07-25T19:30:57.033Z,4.72
2022-07-25T19:33:24.361Z,5.50
2022-07-25T19:35:51.094Z,6.82
2022-07-25T19:38:19.548Z,6.30
2022-07-25T19:40:46.719Z,6.30
2022-07-25T19:45:39.859Z,4.55
2022-07-25T19:48:07.090Z,7.75
2022-07-25T19:53:01.543Z,5.50
2022-07-25T19:55:28.615Z,5.07
2022-07-25T19:57:55.167Z,5.38
2022-07-25T20:00:22.042Z,5.22
2022-07-25T20:02:48.815Z,5.13
2022-07-25T20:05:17.190Z,6.70
2022-07-25T20:07:43.719Z,7.07
2022-07-25T20:10:10.739Z,7.53
2022-07-25T20:12:38.476Z,5.22
2022-07-25T20:15:05.806Z,5.05
2022-07-25T20:17:32.388Z,5.72
2022-07-25T20:19:59.065Z,5.63
2022-07-25T20:22:26.235Z,7.35
2022-07-25T20:24:52.874Z,5.28
2022-07-25T20:27:19.463Z,4.95
2022-07-25T20:29:46.325Z,6.63
2022-07-25T20:32:12.875Z,6.38
2022-07-25T20:34:39.560Z,5.60
2022-07-25T20:37:06.070Z,5.60
2022-07-25T20:39:32.681Z,5.65
2022-07-25T20:41:59.312Z,7.68
2022-07-25T20:44:25.859Z,5.70
2022-07-25T20:46:52.476Z,8.00
2022-07-25T20:49:19.123Z,6.28
2022-07-25T20:51:48.763Z,6.82
2022-07-25T20:54:19.319Z,6.70
2022-07-25T20:56:45.874Z,6.18
2022-07-25T20:59:12.581Z,4.00
2022-07-25T21:01:40.081Z,4.03
2022-07-25T21:04:07.875Z,5.75
2022-07-25T21:06:34.667Z,4.15
2022-07-25T21:09:04.111Z,5.78
2022-07-25T21:11:30.780Z,5.30
2022-07-25T21:13:57.297Z,4.75
2022-07-25T21:16:23.962Z,6.68
2022-07-25T21:18:50.528Z,4.15
2022-07-25T21:21:17.631Z,5.95
2022-07-25T21:23:44.249Z,5.00
2022-07-25T21:26:12.356Z,5.28
2022-07-25T21:28:38.899Z,4.03
2022-07-25T21:31:05.522Z,4.15
2022-07-25T21:33:32.541Z,5.28
2022-07-25T21:35:59.328Z,4.72
2022-07-25T21:38:28.255Z,4.55
2022-07-25T21:40:57.385Z,3.45
2022-07-25T21:43:24.639Z,4.07
2022-07-25T21:45:51.410Z,5.15
2022-07-25T21:48:21.368Z,4.80
2022-07-25T21:50:49.285Z,4.63
2022-07-25T21:53:17.189Z,5.47
2022-07-25T21:55:43.808Z,5.05
2022-07-25T21:58:10.427Z,4.70
2022-07-25T22:00:45.262Z,4.03
2022-07-25T22:03:12.476Z,3.65
2022-07-25T22:05:39.440Z,5.55
2022-07-25T22:08:06.130Z,4.63
2022-07-25T22:10:33.586Z,4.38
2022-07-25T22:13:00.448Z,4.95
2022-07-25T22:15:27.056Z,5.30
2022-07-25T22:17:53.833Z,3.63
2022-07-25T22:20:20.844Z,4.53
2022-07-25T22:22:48.695Z,4.60
2022-07-25T22:25:16.502Z,4.78
2022-07-25T22:27:43.849Z,3.78
2022-07-25T22:30:14.854Z,4.75
2022-07-25T22:32:45.698Z,2.95
2022-07-25T22:35:12.647Z,4.72
2022-07-25T22:37:39.495Z,4.13
2022-07-25T22:40:06.576Z,3.72
2022-07-25T22:42:33.170Z,4.15
2022-07-25T22:44:59.717Z,3.00
2022-07-25T22:47:26.264Z,3.40
2022-07-25T22:49:52.832Z,3.92
2022-07-25T22:52:19.388Z,4.65
2022-07-25T22:54:45.932Z,3.20
2022-07-25T22:57:12.508Z,3.97
2022-07-25T22:59:39.039Z,3.03
2022-07-25T23:02:05.567Z,5.35
2022-07-25T23:04:32.174Z,5.25
2022-07-25T23:06:58.831Z,4.82
2022-07-25T23:09:25.359Z,2.53
2022-07-25T23:12:02.588Z,4.13
2022-07-25T23:14:29.144Z,3.55
2022-07-25T23:17:14.115Z,3.40
2022-07-25T23:19:40.616Z,3.70
2022-07-25T23:22:07.133Z,3.55
2022-07-25T23:24:37.584Z,2.88
2022-07-25T23:27:05.231Z,3.90
2022-07-25T23:31:58.308Z,3.47
2022-07-25T23:34:24.915Z,2.92
2022-07-25T23:36:51.486Z,3.58
2022-07-25T23:39:18.027Z,3.28
2022-07-25T23:41:44.693Z,3.97
2022-07-25T23:44:11.332Z,3.05
2022-07-25T23:46:38.588Z,3.42
2022-07-25T23:49:07.083Z,3.63
2022-07-25T23:51:33.892Z,3.05
2022-07-25T23:54:00.465Z,2.85
2022-07-25T23:56:27.270Z,3.13
2022-07-25T23:58:53.941Z,3.67
